createdAt,value
2023-12-28T00:00:39.025Z,40.60
2023-12-28T00:03:07.778Z,40.00
2023-12-28T00:05:37.337Z,40.50
2023-12-28T00:08:05.638Z,41.20
2023-12-28T00:10:33.798Z,41.40
2023-12-28T00:13:01.972Z,42.70
2023-12-28T00:15:30.055Z,42.00
2023-12-28T00:17:58.404Z,42.30
2023-12-28T00:20:26.616Z,41.70
2023-12-28T00:22:56.028Z,41.30
2023-12-28T00:25:24.230Z,39.80
2023-12-28T00:27:52.433Z,38.80
2023-12-28T00:30:20.658Z,38.30
2023-12-28T00:32:48.748Z,38.40
2023-12-28T00:35:16.845Z,37.60
2023-12-28T00:37:44.873Z,37.60
2023-12-28T00:40:14.632Z,36.00
2023-12-28T00:42:42.903Z,35.50
2023-12-28T00:45:11.707Z,35.20
2023-12-28T00:47:40.038Z,36.40
2023-12-28T00:50:08.904Z,36.40
2023-12-28T00:52:37.074Z,35.80
2023-12-28T00:55:05.790Z,36.50
2023-12-28T00:57:35.341Z,36.00
2023-12-28T01:00:02.679Z,36.10
2023-12-28T01:02:30.813Z,35.90
2023-12-28T01:04:58.953Z,37.00
2023-12-28T01:07:27.057Z,38.60
2023-12-28T01:09:55.197Z,39.10
2023-12-28T01:12:23.400Z,39.90
2023-12-28T01:14:52.848Z,40.30
2023-12-28T01:17:21.104Z,41.60
2023-12-28T01:19:49.489Z,41.00
2023-12-28T01:22:17.668Z,41.50
2023-12-28T01:24:50.677Z,40.30
2023-12-28T01:27:19.326Z,39.80
2023-12-28T01:29:47.399Z,42.70
2023-12-28T01:32:16.874Z,42.20
2023-12-28T01:34:46.239Z,42.80
2023-12-28T01:37:14.405Z,42.30
2023-12-28T01:39:42.580Z,41.70
2023-12-28T01:42:12.025Z,42.50
2023-12-28T01:44:40.182Z,44.00
2023-12-28T01:47:08.977Z,42.50
2023-12-28T01:49:38.823Z,45.80
2023-12-28T01:52:08.456Z,46.00
2023-12-28T01:54:37.813Z,47.20
2023-12-28T01:57:06.616Z,47.80
2023-12-28T01:59:35.146Z,49.60
2023-12-28T02:02:03.317Z,48.60
2023-12-28T02:04:31.951Z,50.80
2023-12-28T02:07:02.709Z,50.20
2023-12-28T02:09:31.105Z,49.80
2023-12-28T02:11:59.226Z,50.50
2023-12-28T02:14:27.508Z,54.70
2023-12-28T02:17:02.865Z,54.70
2023-12-28T02:19:42.038Z,55.50
2023-12-28T02:22:12.212Z,56.20
2023-12-28T02:25:06.722Z,57.70
2023-12-28T02:27:35.839Z,57.40
2023-12-28T02:30:04.149Z,58.10
2023-12-28T02:32:42.211Z,56.80
2023-12-28T02:35:20.406Z,57.60
2023-12-28T02:37:53.450Z,57.40
2023-12-28T02:40:24.305Z,57.90
2023-12-28T02:42:52.597Z,58.10
2023-12-28T02:45:21.109Z,58.10
2023-12-28T02:47:49.230Z,59.60
2023-12-28T02:50:17.408Z,60.60
2023-12-28T02:52:45.412Z,60.10
2023-12-28T02:55:13.516Z,58.70
2023-12-28T02:57:43.090Z,58.70
2023-12-28T03:00:12.030Z,59.80
2023-12-28T03:02:40.178Z,59.90
2023-12-28T03:05:09.091Z,60.90
2023-12-28T03:07:37.906Z,59.90
2023-12-28T03:10:06.898Z,60.50
2023-12-28T03:12:35.336Z,61.50
2023-12-28T03:15:05.445Z,62.50
2023-12-28T03:17:34.127Z,62.40
2023-12-28T03:20:02.757Z,61.90
2023-12-28T03:22:30.838Z,60.40
2023-12-28T03:25:01.794Z,59.60
2023-12-28T03:27:29.948Z,61.50
2023-12-28T03:29:57.989Z,60.40
2023-12-28T03:32:27.484Z,61.60
2023-12-28T03:34:55.657Z,60.20
2023-12-28T03:37:23.670Z,60.40
2023-12-28T03:39:51.873Z,61.70
2023-12-28T03:42:20.123Z,62.30
2023-12-28T03:44:48.199Z,60.00
2023-12-28T03:47:16.285Z,60.70
2023-12-28T03:49:45.805Z,61.20
2023-12-28T03:52:14.042Z,60.20
2023-12-28T03:54:42.383Z,61.40
2023-12-28T03:57:11.584Z,60.50
2023-12-28T04:02:08.507Z,61.10
2023-12-28T04:04:36.671Z,60.40
2023-12-28T04:07:08.519Z,60.20
2023-12-28T04:09:36.922Z,60.40
2023-12-28T04:12:05.386Z,61.90
2023-12-28T04:14:33.465Z,61.80
2023-12-28T04:17:01.615Z,62.50
2023-12-28T04:19:29.790Z,61.60
2023-12-28T04:21:58.055Z,60.80
2023-12-28T04:24:27.493Z,61.10
2023-12-28T04:26:55.714Z,63.90
2023-12-28T04:29:23.768Z,63.70
2023-12-28T04:31:51.890Z,63.90
2023-12-28T04:34:20.052Z,62.50
2023-12-28T04:36:49.996Z,62.60
2023-12-28T04:39:18.911Z,62.60
2023-12-28T04:41:48.406Z,64.00
2023-12-28T04:44:16.439Z,63.60
2023-12-28T04:46:45.482Z,63.20
2023-12-28T04:49:13.933Z,65.00
2023-12-28T04:51:45.592Z,63.80
2023-12-28T04:54:14.076Z,63.80
2023-12-28T04:56:42.346Z,62.30
2023-12-28T04:59:11.820Z,63.50
2023-12-28T05:01:43.470Z,64.00
2023-12-28T05:04:14.415Z,63.10
2023-12-28T05:06:44.610Z,62.90
2023-12-28T05:09:12.766Z,63.80
2023-12-28T05:11:40.811Z,63.20
2023-12-28T05:14:10.783Z,63.20
2023-12-28T05:16:40.727Z,63.10
2023-12-28T05:19:10.177Z,63.60
2023-12-28T05:21:38.972Z,52.20
2023-12-28T05:24:07.568Z,54.90
2023-12-28T05:26:35.637Z,50.90
2023-12-28T05:29:03.755Z,41.30
2023-12-28T05:31:32.019Z,45.70
2023-12-28T05:34:01.669Z,55.50
2023-12-28T05:36:29.940Z,54.80
2023-12-28T05:38:58.013Z,59.10
2023-12-28T05:41:26.082Z,59.30
2023-12-28T05:43:54.226Z,59.70
2023-12-28T05:46:22.776Z,57.30
2023-12-28T08:43:55.045Z,64.10
2023-12-28T08:46:25.772Z,62.80
2023-12-28T08:48:53.981Z,63.80
